createdAt,value
2019-06-01T00:00:10.376Z,14.60
2019-06-01T00:02:27.811Z,14.60
2019-06-01T00:04:58.109Z,14.60
2019-06-01T00:07:28.330Z,14.60
2019-06-01T00:09:58.681Z,14.50
2019-06-01T00:12:29.038Z,14.50
2019-06-01T00:14:59.473Z,14.50
2019-06-01T00:17:29.810Z,14.40
2019-06-01T00:20:00.136Z,14.40
2019-06-01T00:22:30.381Z,14.30
2019-06-01T00:25:00.759Z,14.30
2019-06-01T00:27:31.043Z,14.30
2019-06-01T00:30:01.377Z,14.20
2019-06-01T00:32:31.631Z,14.10
2019-06-01T00:35:02.098Z,14.20
2019-06-01T00:37:33.584Z,14.10
2019-06-01T00:40:04.180Z,14.10
2019-06-01T00:42:34.681Z,14.00
2019-06-01T00:45:06.109Z,14.00
2019-06-01T00:47:36.337Z,14.00
2019-06-01T00:50:07.211Z,14.00
2019-06-01T00:52:37.643Z,14.00
2019-06-01T00:55:08.101Z,13.90
2019-06-01T00:57:38.439Z,13.80
2019-06-01T01:00:09.173Z,13.90
2019-06-01T01:02:39.597Z,13.80
2019-06-01T01:05:15.963Z,13.80
2019-06-01T01:07:48.687Z,13.70
2019-06-01T01:10:19.473Z,13.70
2019-06-01T01:13:07.432Z,13.70
2019-06-01T01:15:37.914Z,13.70
2019-06-01T01:18:08.655Z,13.70
2019-06-01T01:20:39.005Z,13.60
2019-06-01T01:23:09.260Z,13.60
2019-06-01T01:25:39.463Z,13.60
2019-06-01T01:28:09.935Z,13.50
2019-06-01T01:30:40.406Z,13.50
2019-06-01T01:33:10.715Z,13.50
2019-06-01T01:35:41.087Z,13.40
2019-06-01T01:38:12.267Z,13.40
2019-06-01T01:40:42.735Z,13.30
2019-06-01T01:43:13.087Z,13.30
2019-06-01T01:45:43.796Z,13.40
2019-06-01T01:48:14.240Z,13.40
2019-06-01T01:50:44.434Z,13.40
2019-06-01T01:53:14.702Z,13.40
2019-06-01T01:55:45.939Z,13.40
2019-06-01T01:58:16.390Z,13.30
2019-06-01T02:00:47.261Z,13.40
2019-06-01T02:03:17.636Z,13.30
2019-06-01T02:05:47.881Z,13.30
2019-06-01T02:08:18.544Z,13.20
2019-06-01T02:10:48.831Z,13.20
2019-06-01T02:13:21.115Z,13.20
2019-06-01T02:15:52.288Z,13.10
2019-06-01T02:18:22.594Z,13.10
2019-06-01T02:20:52.811Z,13.10
2019-06-01T02:23:24.679Z,13.00
2019-06-01T02:25:54.943Z,13.00
2019-06-01T02:28:25.258Z,13.10
2019-06-01T02:30:56.092Z,13.00
2019-06-01T02:33:26.763Z,13.00
2019-06-01T02:35:58.088Z,13.00
2019-06-01T02:38:28.431Z,13.00
2019-06-01T02:41:01.202Z,12.90
2019-06-01T02:43:31.901Z,13.00
2019-06-01T02:46:02.899Z,13.00
2019-06-01T02:48:34.254Z,13.00
2019-06-01T02:51:05.492Z,13.00
2019-06-01T02:53:35.791Z,12.90
2019-06-01T02:56:06.271Z,12.90
2019-06-01T02:58:36.530Z,12.80
2019-06-01T03:01:36.229Z,12.80
2019-06-01T03:04:08.553Z,12.80
2019-06-01T03:06:41.786Z,12.70
2019-06-01T03:09:13.361Z,12.60
2019-06-01T03:11:43.876Z,12.60
2019-06-01T03:14:14.189Z,12.60
2019-06-01T03:16:44.545Z,12.50
2019-06-01T03:19:17.158Z,12.50
2019-06-01T03:21:51.578Z,12.50
2019-06-01T03:24:25.702Z,12.50
2019-06-01T03:26:56.283Z,12.50
2019-06-01T03:29:29.226Z,12.50
2019-06-01T03:32:19.130Z,12.50
2019-06-01T03:34:31.582Z,12.50
2019-06-01T03:37:02.891Z,12.60
2019-06-01T03:39:33.802Z,12.60
2019-06-01T03:42:05.197Z,12.70
2019-06-01T03:44:35.549Z,12.70
2019-06-01T03:47:05.761Z,12.70
2019-06-01T03:49:36.169Z,12.80
2019-06-01T03:52:06.905Z,12.70
2019-06-01T03:54:37.242Z,12.70
2019-06-01T03:57:09.187Z,12.70
2019-06-01T03:59:39.505Z,12.70
2019-06-01T04:02:09.792Z,12.70
2019-06-01T04:04:39.978Z,12.70
2019-06-01T04:07:10.763Z,12.80
2019-06-01T04:09:41.073Z,12.90
2019-06-01T04:12:11.981Z,12.90
2019-06-01T04:14:42.377Z,13.00
2019-06-01T04:17:12.659Z,13.10
2019-06-01T04:19:42.890Z,13.10
2019-06-01T04:22:14.230Z,13.10
2019-06-01T04:24:44.497Z,13.20
2019-06-01T04:27:14.737Z,13.30
2019-06-01T04:29:44.989Z,13.40
2019-06-01T04:32:15.282Z,13.50
2019-06-01T04:34:45.482Z,13.60
2019-06-01T04:37:15.745Z,13.60
2019-06-01T04:39:46.090Z,13.80
2019-06-01T04:42:17.459Z,13.80
2019-06-01T04:44:47.696Z,13.90
2019-06-01T04:47:18.029Z,14.00
2019-06-01T04:49:48.214Z,14.00
2019-06-01T04:52:18.437Z,14.10
2019-06-01T04:54:50.295Z,14.20
2019-06-01T04:57:20.636Z,14.30
2019-06-01T04:59:50.865Z,14.40
2019-06-01T05:02:22.725Z,14.50
2019-06-01T05:04:52.940Z,14.60
2019-06-01T05:07:23.253Z,14.80
2019-06-01T05:09:53.451Z,14.90
2019-06-01T05:12:23.851Z,15.10
2019-06-01T05:14:54.085Z,15.20
2019-06-01T05:17:24.389Z,15.30
2019-06-01T05:19:54.572Z,15.40
2019-06-01T05:22:24.857Z,15.50
2019-06-01T05:24:55.193Z,15.60
2019-06-01T05:27:25.460Z,15.80
2019-06-01T05:29:55.663Z,15.90
2019-06-01T05:32:25.966Z,16.10
2019-06-01T05:34:56.286Z,16.30
2019-06-01T05:37:26.508Z,16.50
2019-06-01T05:39:56.746Z,16.60
2019-06-01T05:42:26.985Z,16.60
2019-06-01T05:44:57.262Z,16.50
2019-06-01T05:47:27.450Z,16.60
2019-06-01T05:49:57.743Z,16.60
2019-06-01T05:52:27.960Z,16.60
2019-06-01T05:54:59.347Z,16.60
2019-06-01T05:57:29.669Z,16.60
2019-06-01T06:00:00.066Z,16.60
2019-06-01T06:02:30.294Z,16.70
2019-06-01T06:05:00.537Z,17.00
2019-06-01T06:07:30.790Z,17.30
2019-06-01T06:10:01.335Z,17.30
2019-06-01T06:12:31.520Z,17.30
2019-06-01T06:15:01.765Z,17.30
2019-06-01T06:17:32.056Z,17.40
2019-06-01T06:20:02.401Z,17.50
2019-06-01T06:22:32.610Z,17.50
2019-06-01T06:25:02.880Z,17.60
2019-06-01T06:27:33.138Z,17.70
2019-06-01T06:30:04.019Z,17.80
2019-06-01T06:32:34.349Z,18.00
2019-06-01T06:35:05.114Z,18.30
2019-06-01T06:37:35.452Z,18.60
2019-06-01T06:40:06.148Z,18.90
2019-06-01T06:42:36.480Z,19.10
2019-06-01T06:45:07.164Z,19.40
2019-06-01T06:47:37.452Z,19.60
2019-06-01T06:50:10.195Z,20.10
2019-06-01T06:52:40.745Z,20.30
2019-06-01T06:55:11.164Z,20.50
2019-06-01T06:57:41.603Z,20.80
2019-06-01T07:00:12.437Z,21.10
2019-06-01T07:02:42.869Z,21.40
2019-06-01T07:05:13.729Z,21.50
2019-06-01T07:07:45.642Z,21.60
2019-06-01T07:10:16.032Z,21.70
2019-06-01T07:12:46.401Z,21.60
2019-06-01T07:15:16.698Z,21.60
2019-06-01T07:17:47.335Z,21.80
2019-06-01T07:20:17.769Z,21.70
2019-06-01T07:22:48.155Z,21.80
2019-06-01T07:25:19.589Z,21.90
2019-06-01T07:27:50.263Z,21.80
2019-06-01T07:30:20.511Z,21.90
2019-06-01T07:32:50.908Z,21.90
2019-06-01T07:35:22.414Z,22.00
2019-06-01T07:37:52.837Z,22.10
2019-06-01T07:40:24.885Z,22.30
2019-06-01T07:42:55.959Z,22.40
2019-06-01T07:45:26.945Z,22.50
2019-06-01T07:47:57.255Z,22.50
2019-06-01T07:50:28.072Z,22.60
2019-06-01T07:52:58.420Z,22.70
2019-06-01T07:55:29.775Z,22.90
2019-06-01T07:58:01.174Z,22.90
2019-06-01T08:00:31.495Z,23.00
2019-06-01T08:03:04.878Z,23.20
2019-06-01T08:05:35.122Z,23.30
2019-06-01T08:08:05.476Z,23.50
2019-06-01T08:10:35.804Z,23.50
2019-06-01T08:13:06.103Z,23.60
2019-06-01T08:15:36.396Z,23.70
2019-06-01T08:18:06.697Z,23.80
2019-06-01T08:20:36.981Z,23.80
2019-06-01T08:23:07.346Z,24.00
2019-06-01T08:25:37.833Z,24.10
2019-06-01T08:28:10.776Z,24.30
2019-06-01T08:30:41.064Z,24.50
2019-06-01T08:33:11.417Z,24.50
2019-06-01T08:35:41.711Z,24.70
2019-06-01T08:38:11.935Z,24.80
2019-06-01T08:40:42.284Z,24.80
2019-06-01T08:43:12.769Z,24.90
2019-06-01T08:45:43.315Z,25.00
2019-06-01T08:48:13.667Z,25.00
2019-06-01T08:50:46.228Z,25.10
2019-06-01T08:53:17.428Z,25.10
2019-06-01T08:55:47.673Z,25.20
2019-06-01T08:58:17.945Z,25.20
2019-06-01T09:00:49.411Z,25.00
2019-06-01T09:03:19.674Z,25.00
2019-06-01T09:05:49.999Z,24.90
2019-06-01T09:08:23.599Z,24.90
2019-06-01T09:10:52.564Z,25.00
2019-06-01T09:13:23.022Z,25.20
2019-06-01T09:15:53.465Z,25.10
2019-06-01T09:18:23.695Z,25.10
2019-06-01T09:20:54.090Z,25.20
2019-06-01T09:23:25.443Z,25.30
2019-06-01T09:28:27.840Z,25.50
2019-06-01T09:30:58.162Z,25.60
2019-06-01T09:33:28.506Z,25.60
2019-06-01T09:35:58.907Z,25.60
2019-06-01T09:38:29.607Z,25.50
2019-06-01T09:41:00.171Z,25.50
2019-06-01T09:43:31.222Z,25.50
2019-06-01T09:46:01.634Z,25.70
2019-06-01T09:48:31.918Z,25.70
2019-06-01T09:51:02.311Z,25.70
2019-06-01T09:53:34.328Z,25.80
2019-06-01T09:56:05.019Z,25.80
2019-06-01T09:58:36.751Z,25.80
2019-06-01T10:01:07.366Z,25.70
2019-06-01T10:03:38.550Z,25.70
2019-06-01T10:06:09.013Z,25.70
2019-06-01T10:08:39.801Z,25.90
2019-06-01T10:11:10.094Z,25.90
2019-06-01T10:13:40.355Z,25.80
2019-06-01T10:16:10.630Z,26.00
2019-06-01T10:18:40.885Z,26.20
2019-06-01T10:21:11.186Z,26.10
2019-06-01T10:23:42.696Z,26.10
2019-06-01T10:26:13.178Z,26.10
2019-06-01T10:28:43.452Z,26.20
2019-06-01T10:31:13.841Z,26.40
2019-06-01T10:33:44.154Z,26.30
2019-06-01T10:36:20.344Z,26.20
2019-06-01T10:38:46.457Z,26.10
2019-06-01T10:41:16.872Z,26.00
2019-06-01T10:43:47.254Z,26.10
2019-06-01T10:46:16.846Z,26.10
2019-06-01T10:48:47.133Z,26.10
2019-06-01T10:51:17.423Z,26.20
2019-06-01T10:53:47.801Z,26.30
2019-06-01T10:56:18.234Z,26.40
2019-06-01T10:58:59.313Z,26.50
2019-06-01T11:01:20.424Z,26.50
2019-06-01T11:03:50.737Z,26.40
2019-06-01T11:06:36.213Z,26.30
2019-06-01T11:08:53.400Z,26.20
2019-06-01T11:11:23.685Z,26.20
2019-06-01T11:13:54.407Z,26.20
2019-06-01T11:16:27.691Z,26.20
2019-06-01T11:18:57.938Z,26.20
2019-06-01T11:21:28.364Z,26.40
2019-06-01T11:23:58.874Z,26.50
2019-06-01T11:26:29.221Z,26.50
2019-06-01T11:29:00.730Z,26.40
2019-06-01T11:31:30.996Z,26.40
2019-06-01T11:34:01.367Z,26.40
2019-06-01T11:36:31.767Z,26.50
2019-06-01T11:39:02.332Z,26.40
2019-06-01T11:41:34.432Z,26.40
2019-06-01T11:44:04.855Z,26.40
2019-06-01T11:46:36.911Z,26.40
2019-06-01T11:49:08.095Z,26.30
2019-06-01T11:51:39.393Z,26.30
2019-06-01T11:54:10.376Z,26.40
2019-06-01T11:56:41.347Z,26.50
2019-06-01T11:59:12.831Z,26.50
2019-06-01T12:01:44.091Z,26.40
2019-06-01T12:04:15.215Z,26.50
2019-06-01T12:06:46.330Z,26.50
2019-06-01T12:09:16.948Z,26.40
2019-06-01T12:11:47.952Z,26.40
2019-06-01T12:14:19.003Z,26.40
2019-06-01T12:16:49.244Z,26.30
2019-06-01T12:19:19.509Z,26.40
2019-06-01T12:21:49.741Z,26.50
2019-06-01T12:24:25.527Z,26.50
2019-06-01T12:26:55.294Z,26.50
2019-06-01T12:35:07.362Z,26.40
2019-06-01T12:38:00.731Z,26.40
2019-06-01T12:40:12.461Z,26.40
2019-06-01T12:42:44.030Z,26.30
2019-06-01T12:45:22.819Z,26.40
2019-06-01T12:47:55.359Z,26.30
2019-06-01T12:50:24.836Z,26.50
2019-06-01T12:52:55.029Z,26.60
2019-06-01T12:55:25.385Z,26.50
2019-06-01T12:57:55.754Z,26.60
2019-06-01T13:00:26.147Z,26.60
2019-06-01T13:03:07.194Z,26.60
2019-06-01T13:05:28.616Z,26.60
2019-06-01T13:08:02.735Z,26.70
2019-06-01T13:10:31.879Z,26.80
2019-06-01T13:13:05.571Z,26.80
2019-06-01T13:15:37.086Z,26.70
2019-06-01T13:18:10.499Z,26.70
2019-06-01T13:20:41.384Z,26.60
2019-06-01T13:23:12.012Z,26.70
2019-06-01T13:25:43.579Z,26.80
2019-06-01T13:28:14.292Z,26.70
2019-06-01T13:30:45.940Z,26.80
2019-06-01T13:33:19.287Z,26.70
2019-06-01T13:35:50.621Z,26.70
2019-06-01T13:38:21.105Z,26.70
2019-06-01T13:40:53.127Z,26.70
2019-06-01T13:43:23.648Z,26.70
2019-06-01T13:45:56.530Z,26.60
2019-06-01T13:48:26.957Z,26.50
2019-06-01T13:50:57.335Z,26.50
2019-06-01T13:53:27.739Z,26.50
2019-06-01T13:55:59.736Z,26.60
2019-06-01T13:58:30.344Z,26.70
2019-06-01T14:01:00.911Z,26.70
2019-06-01T14:03:31.518Z,26.70
2019-06-01T14:06:02.068Z,26.70
2019-06-01T14:08:32.417Z,26.80
2019-06-01T14:11:03.009Z,26.80
2019-06-01T14:13:33.463Z,26.70
2019-06-01T14:16:04.059Z,26.70
2019-06-01T14:18:34.585Z,26.70
2019-06-01T14:21:04.975Z,26.70
2019-06-01T14:23:35.448Z,26.70
2019-06-01T14:26:05.965Z,26.70
2019-06-01T14:28:36.624Z,26.70
2019-06-01T14:31:07.256Z,26.70
2019-06-01T14:33:37.893Z,26.70
2019-06-01T14:36:08.630Z,26.70
2019-06-01T14:38:46.831Z,26.80
2019-06-01T14:41:11.151Z,26.90
2019-06-01T14:43:42.494Z,27.00
2019-06-01T14:46:12.923Z,27.00
2019-06-01T14:48:43.409Z,27.10
2019-06-01T14:51:13.892Z,27.10
2019-06-01T14:53:44.481Z,27.20
2019-06-01T14:56:14.939Z,27.20
2019-06-01T14:58:45.381Z,27.10
2019-06-01T15:01:31.350Z,27.10
2019-06-01T15:03:48.261Z,27.20
2019-06-01T15:06:20.831Z,27.10
2019-06-01T15:09:13.167Z,27.10
2019-06-01T15:11:22.847Z,27.20
2019-06-01T15:13:54.284Z,27.20
2019-06-01T15:16:24.831Z,27.10
2019-06-01T15:21:24.714Z,27.10
2019-06-01T15:23:56.663Z,27.10
2019-06-01T15:26:27.232Z,27.10
2019-06-01T15:28:58.837Z,27.10
2019-06-01T15:31:29.338Z,27.00
2019-06-01T15:33:59.868Z,27.00
2019-06-01T15:36:30.503Z,27.00
2019-06-01T15:39:04.255Z,27.00
2019-06-01T15:41:34.742Z,27.00
2019-06-01T15:44:05.364Z,27.00
2019-06-01T15:46:35.705Z,27.00
2019-06-01T15:49:06.706Z,27.00
2019-06-01T15:51:37.305Z,26.90
2019-06-01T15:54:07.631Z,26.90
2019-06-01T15:56:38.071Z,26.80
2019-06-01T15:59:08.588Z,26.80
2019-06-01T16:01:40.288Z,26.80
2019-06-01T16:04:11.904Z,26.80
2019-06-01T16:06:42.321Z,26.80
2019-06-01T16:09:12.905Z,26.80
2019-06-01T16:11:43.470Z,26.90
2019-06-01T16:14:14.034Z,26.90
2019-06-01T16:16:44.718Z,26.90
2019-06-01T16:19:15.285Z,26.90
2019-06-01T16:21:45.985Z,26.90
2019-06-01T16:24:16.433Z,27.00
2019-06-01T16:26:48.025Z,26.90
2019-06-01T16:29:18.511Z,26.90
2019-06-01T16:31:49.047Z,26.80
2019-06-01T16:34:19.475Z,26.90
2019-06-01T16:36:49.844Z,26.90
2019-06-01T16:39:20.232Z,26.90
2019-06-01T16:41:50.598Z,26.90
2019-06-01T16:44:20.905Z,26.80
2019-06-01T16:46:51.174Z,26.80
2019-06-01T16:49:21.541Z,26.70
2019-06-01T16:51:53.365Z,26.70
2019-06-01T16:54:23.967Z,26.70
2019-06-01T16:56:55.925Z,26.70
2019-06-01T16:59:27.394Z,26.80
2019-06-01T17:01:58.979Z,26.70
2019-06-01T17:04:29.349Z,26.60
2019-06-01T17:07:00.672Z,26.60
2019-06-01T17:09:31.143Z,26.70
2019-06-01T17:12:01.653Z,26.60
2019-06-01T17:14:32.162Z,26.60
2019-06-01T17:17:05.174Z,26.60
2019-06-01T17:19:34.931Z,26.50
2019-06-01T17:22:05.603Z,26.50
2019-06-01T17:24:36.292Z,26.50
2019-06-01T17:27:08.210Z,26.50
2019-06-01T17:29:38.654Z,26.50
2019-06-01T17:32:23.632Z,26.40
2019-06-01T17:34:41.431Z,26.40
2019-06-01T17:37:12.325Z,26.30
2019-06-01T17:39:43.141Z,26.30
2019-06-01T17:42:13.948Z,26.20
2019-06-01T17:44:44.477Z,26.20
2019-06-01T17:47:15.747Z,26.20
2019-06-01T17:49:46.131Z,26.10
2019-06-01T17:52:16.927Z,26.10
2019-06-01T17:54:47.373Z,26.10
2019-06-01T17:57:17.890Z,26.20
2019-06-01T17:59:48.438Z,26.20
2019-06-01T18:02:18.697Z,26.10
2019-06-01T18:04:49.458Z,26.00
2019-06-01T18:07:19.918Z,25.90
2019-06-01T18:09:50.324Z,25.80
2019-06-01T18:12:20.694Z,25.80
2019-06-01T18:14:52.058Z,25.80
2019-06-01T18:17:22.455Z,25.80
2019-06-01T18:19:52.871Z,25.80
2019-06-01T18:22:23.222Z,25.70
2019-06-01T18:24:53.651Z,25.60
2019-06-01T18:27:24.086Z,25.50
2019-06-01T18:29:54.497Z,25.50
2019-06-01T18:32:24.872Z,25.40
2019-06-01T18:34:55.330Z,25.30
2019-06-01T18:37:25.883Z,25.30
2019-06-01T18:39:57.322Z,25.40
2019-06-01T18:42:30.242Z,25.40
2019-06-01T18:45:00.991Z,25.40
2019-06-01T18:47:32.703Z,25.30
2019-06-01T18:50:04.086Z,25.30
2019-06-01T18:52:34.701Z,25.20
2019-06-01T18:55:06.475Z,25.20
2019-06-01T18:57:40.294Z,25.00
2019-06-01T19:03:47.677Z,24.70
2019-06-01T19:06:20.356Z,24.60
2019-06-01T19:08:52.051Z,24.40
2019-06-01T19:11:32.796Z,24.40
2019-06-01T19:13:55.662Z,24.20
2019-06-01T19:16:26.220Z,24.20
2019-06-01T19:18:56.765Z,24.10
2019-06-01T19:21:31.038Z,24.00
2019-06-01T19:24:01.400Z,23.80
2019-06-01T19:26:33.052Z,23.80
2019-06-01T19:29:03.546Z,23.80
2019-06-01T19:31:33.933Z,23.70
2019-06-01T19:34:04.251Z,23.70
2019-06-01T19:36:34.794Z,23.50
2019-06-01T19:39:09.087Z,23.50
2019-06-01T19:41:44.674Z,23.30
2019-06-01T19:44:11.861Z,23.10
2019-06-01T19:46:42.209Z,22.90
2019-06-01T19:49:13.673Z,22.90
2019-06-01T19:51:44.691Z,22.70
2019-06-01T19:54:15.107Z,22.60
2019-06-01T19:56:52.732Z,22.40
2019-06-01T19:59:23.097Z,22.30
2019-06-01T20:01:53.700Z,22.20
2019-06-01T20:04:24.226Z,22.10
2019-06-01T20:06:54.854Z,22.00
2019-06-01T20:09:25.586Z,21.90
2019-06-01T20:12:01.965Z,21.90
2019-06-01T20:14:27.939Z,21.80
2019-06-01T20:16:58.237Z,21.80
2019-06-01T20:19:28.655Z,21.70
2019-06-01T20:21:59.163Z,21.60
2019-06-01T20:24:29.543Z,21.50
2019-06-01T20:26:59.843Z,21.40
2019-06-01T20:29:30.350Z,21.30
2019-06-01T20:32:02.862Z,21.40
2019-06-01T20:34:34.397Z,21.20
2019-06-01T20:39:34.470Z,21.10
2019-06-01T20:42:20.289Z,21.00
2019-06-01T20:44:37.048Z,21.00
2019-06-01T20:47:07.634Z,21.00
2019-06-01T20:52:07.984Z,20.90
2019-06-01T20:54:38.327Z,20.70
2019-06-01T20:57:08.672Z,20.70
2019-06-01T20:59:39.027Z,20.60
2019-06-01T21:02:11.232Z,20.50
2019-06-01T21:04:41.584Z,20.50
2019-06-01T21:07:11.929Z,20.40
2019-06-01T21:09:43.812Z,20.40
2019-06-01T21:12:16.140Z,20.40
2019-06-01T21:14:45.502Z,20.30
2019-06-01T21:17:16.516Z,20.30
2019-06-01T21:19:46.990Z,20.20
2019-06-01T21:22:18.507Z,20.10
2019-06-01T21:24:48.928Z,20.10
2019-06-01T21:27:22.709Z,20.00
2019-06-01T21:29:53.147Z,19.90
2019-06-01T21:32:25.643Z,19.90
2019-06-01T21:34:55.943Z,19.80
2019-06-01T21:37:26.541Z,19.70
2019-06-01T21:39:58.074Z,19.70
2019-06-01T21:42:28.614Z,19.60
2019-06-01T21:44:59.067Z,19.50
2019-06-01T21:47:29.759Z,19.40
2019-06-01T21:50:01.801Z,19.20
2019-06-01T21:52:32.251Z,19.20
2019-06-01T21:55:02.505Z,19.20
2019-06-01T21:57:32.900Z,19.10
2019-06-01T22:00:03.311Z,19.10
2019-06-01T22:02:35.726Z,18.90
2019-06-01T22:05:06.559Z,18.90
2019-06-01T22:07:36.910Z,18.80
2019-06-01T22:10:07.699Z,18.80
2019-06-01T22:12:38.116Z,18.80
2019-06-01T22:15:08.725Z,18.80
2019-06-01T22:17:40.261Z,18.80
2019-06-01T22:20:10.780Z,18.80
2019-06-01T22:22:41.294Z,18.80
2019-06-01T22:25:11.681Z,18.80
2019-06-01T22:27:42.483Z,18.80
2019-06-01T22:30:13.322Z,18.70
2019-06-01T22:32:44.068Z,18.60
2019-06-01T22:35:15.177Z,18.50
2019-06-01T22:37:45.566Z,18.40
2019-06-01T22:40:19.343Z,18.40
2019-06-01T22:42:50.127Z,18.30
2019-06-01T22:45:27.069Z,18.20
2019-06-01T22:47:57.615Z,18.10
2019-06-01T22:50:29.076Z,18.10
2019-06-01T22:52:59.801Z,18.00
2019-06-01T22:55:32.640Z,17.90
2019-06-01T22:58:03.701Z,17.90
2019-06-01T23:00:34.469Z,17.80
2019-06-01T23:03:04.917Z,17.80
2019-06-01T23:05:35.423Z,17.70
2019-06-01T23:08:06.120Z,17.60
2019-06-01T23:10:36.627Z,17.60
2019-06-01T23:13:07.145Z,17.50
2019-06-01T23:15:37.584Z,17.50
2019-06-01T23:18:07.898Z,17.50
2019-06-01T23:20:38.365Z,17.40
2019-06-01T23:23:08.739Z,17.40
2019-06-01T23:25:39.090Z,17.40
2019-06-01T23:28:09.419Z,17.30
2019-06-01T23:30:39.768Z,17.30
2019-06-01T23:33:10.287Z,17.20
2019-06-01T23:35:41.300Z,17.20
2019-06-01T23:38:12.245Z,17.20
2019-06-01T23:40:42.547Z,17.20
2019-06-01T23:43:12.806Z,17.20
2019-06-01T23:45:43.221Z,17.20
2019-06-01T23:48:14.670Z,17.20
2019-06-01T23:50:45.449Z,17.20
2019-06-01T23:53:15.724Z,17.10
2019-06-01T23:55:46.075Z,17.10
2019-06-01T23:58:16.443Z,17.10
